KLSSOUTHWEST WASHINGTON RGNL
METARs for airports near KLS, sorted by distance:
N 0 nm 20' KKLS 171656Z 16005KT 10SM -RA BKN020 OVC036 11/09 A3010
S 20 nm 58' KSPB 171653Z VRB03KT 10SM SCT017 OVC044 A3010
S 31 nm 28' KVUO 171653Z 18003KT 10SM FEW031 BKN037 OVC065 12/09 A3012
N 33 nm 177' KCLS 171655Z 22006KT 9SM OVC039 13/12 A3007
S 34 nm 30' KPDX 171653Z 24004KT 10SM SCT029 BKN036 BKN070 12/09 A3011
S 34 nm 207' KHIO 171653Z 14003KT 10SM FEW010 SCT047 OVC060 12/09 A3011
SE 39 nm 38' KTTD 171653Z 22006KT 10SM BKN016 OVC029 12/09 A3011
W 40 nm 14' KAST 171655Z 30005KT 10SM FEW025 OVC055 14/10 A3009
N 51 nm 207' KOLM 171654Z 24006KT 10SM FEW019 SCT025 OVC033 14/09 A3005
S 52 nm 199' KUAO 171653Z 18010G14KT 10SM BKN009 OVC040 11/09 A3013
S 56 nm 162' KMMV 171653Z 17005KT 10SM FEW015 BKN035 OVC045 13/10 A3011
SW 56 nm 39' KTMK 171635Z 00000KT 10SM FEW043 OVC060 13/13 A3013
N 59 nm 301' KGRF 171655Z 19007KT 10SM OVC021 14/09 A3001
N 63 nm 322' KTCM 171655Z 20007KT 10SM OVC020 14/09 A3003
N 64 nm 537' KPLU 171655Z 00000KT 10SM OVC020 13/09 A3005
NW 66 nm 17' KHQM 171653Z 31008KT 10SM SCT018 SCT024 OVC030 12/09 A3007
N 67 nm 272' KSHN 171653Z 00000KT 10SM SCT022 BKN110 15/09 A3000
N 70 nm 294' KTIW 171653Z 18004KT 10SM OVC019 12/09 A3004
S 72 nm 213' KSLE 171556Z 16006KT 10SM BKN025 BKN041 OVC050 13/08 A3011
E 78 nm 246' KDLS 171653Z 31013G27KT FEW050 SCT110 17/05 A3000
N 82 nm 444' KPWT 171656Z 21004KT 10SM SCT013 A3004
N 83 nm 432' KSEA 171653Z 20007KT 10SM BKN014 OVC045 12/07 A3004
N 87 nm 32' KRNT 171653Z 19008KT 10SM -RA BKN021 OVC060 13/08 A3004
N 88 nm 21' KBFI 171653Z 20007KT 10SM OVC013 13/08 A3004
S 98 nm 249' KCVO 171656Z 17005KT 10SM OVC060 12/09 A3015
TAFs for airports near KLS, sorted by distance:
S 34 nm 30' KPDX KPDX 171458Z 1715/1812 22004KT P6SM VCSH SCT035 OVC050
  TEMPO 1715/1718 6SM -SHRA BKN025 OVC035
  FM171900 27006KT P6SM FEW025 BKN040
  FM180000 31007KT P6SM BKN050
S 34 nm 207' KHIO TAF KHIO 171131Z 1712/1812 00000KT P6SM SCT025 BKN035
  FM171900 28005KT P6SM SCT035
  FM172300 31008KT P6SM SCT045
  FM180800 VRB03KT P6SM BKN040
SE 39 nm 38' KTTD KTTD 171131Z 1712/1812 22004KT P6SM BKN025 OVC035
  FM172100 26005KT P6SM BKN040
W 40 nm 14' KAST KAST 171131Z 1712/1812 29008KT P6SM -SHRA SCT015 BKN025 OVC035
  FM171900 28010KT P6SM SCT035
  FM180400 27005KT P6SM BKN025
N 51 nm 207' KOLM TAF KOLM 171120Z 1712/1812 VRB05KT P6SM SCT040 BKN060
  FM171500 21008KT P6SM OVC025
  FM171900 23011KT P6SM SCT030 OVC050
  FM180300 23006KT P6SM BKN050
  FM180700 VRB04KT P6SM OVC030
S 52 nm 199' KUAO KUAO 171131Z 1712/1812 21003KT P6SM SCT040 BKN060
  FM171500 21005KT P6SM BKN025
  FM171900 21007KT P6SM BKN035
  FM180200 30005KT P6SM BKN050
N 59 nm 301' KGRF TAF KGRF 171300Z 1713/1819 13006KT 8000 BR SCT008 BKN012 OVC090 QNH2997INS
  BECMG 1715/1716 22006KT 9999 NSW BKN020 QNH2999INS
  BECMG 1718/1719 24009KT 9999 BKN030 QNH2999INS
  TEMPO 1722/1804 25012G20KT
  BECMG 1805/1806 13006KT 9999 BKN015 OVC045 QNH3003INS
  BECMG 1816/1817 24006KT 9999 OVC020 QNH3006INS TX19/1722Z TN08/1713Z
N 63 nm 322' KTCM TAF KTCM 171300Z 1713/1819 19006KT 9999 OVC050 620606 QNH3000INS
  TEMPO 1713/1715 BKN015
  BECMG 1716/1717 21006KT 9999 BKN025 OVC050 620601 QNH3001INS
  BECMG 1720/1721 24010G15KT 9999 VCSH BKN040 610603 QNH3001INS
  BECMG 1723/1724 24010G15KT 9999 NSW BKN050 620603 QNH3001INS
  TEMPO 1800/1803 24012G20KT
  BECMG 1804/1805 22010KT 9999 BKN020 620603 QNH3004INS TX18/1721Z TN09/1809Z
NW 66 nm 17' KHQM TAF KHQM 171120Z 1712/1812 30008KT P6SM OVC025
  FM172100 26015G24KT P6SM SCT025 OVC035
  FM180400 27007KT P6SM OVC025
S 72 nm 213' KSLE KSLE 171307Z 1713/1812 18004KT P6SM -SHRA SCT025 OVC040
  FM171900 24005KT P6SM SCT035 BKN050
  FM172200 31008KT P6SM SCT050
E 78 nm 246' KDLS TAF KDLS 171120Z 1712/1812 28011G18KT P6SM SCT100
  FM171600 29021G33KT P6SM FEW070 SCT100
  FM180500 28012KT P6SM SKC
N 82 nm 444' KPWT TAF
  AMD KPWT 171257Z 1713/1812 20004KT P6SM BKN050
  TEMPO 1713/1716 -SHRA OVC003
  FM172000 21009KT P6SM BKN030 BKN050
  FM180400 17006KT P6SM OVC030
  FM180800 VRB03KT P6SM OVC020
N 83 nm 432' KSEA KSEA 171300Z 1713/1818 21006KT P6SM VCSH SCT020 OVC050
  TEMPO 1713/1716 -SHRA OVC010
  FM172000 22010KT P6SM BKN040
  FM180400 20008KT P6SM OVC040
N 88 nm 21' KBFI TAF KBFI 171120Z 1712/1812 18005KT P6SM OVC050
  TEMPO 1712/1716 -SHRA OVC020
  FM172100 22008KT P6SM BKN050
  FM180400 VRB03KT P6SM OVC050

Shortcut to this page: http://wxbay.com.

Data may contain errors.